sensor_id;sensor_type;location;lat;lon;timestamp;pressure;altitude;pressure_sealevel;temperature;humidity
44044;BME280;29709;52.396;16.796;2022-07-24T00:00:07;101956.48;;;18.17;70.52
44044;BME280;29709;52.396;16.796;2022-07-24T00:03:11;101953.70;;;18.17;70.05
44044;BME280;29709;52.396;16.796;2022-07-24T00:06:15;101960.52;;;18.14;69.96
44044;BME280;29709;52.396;16.796;2022-07-24T00:09:18;101960.59;;;18.06;70.48
44044;BME280;29709;52.396;16.796;2022-07-24T00:12:23;101968.43;;;18.03;70.03
44044;BME280;29709;52.396;16.796;2022-07-24T00:15:28;101967.87;;;17.93;69.86
44044;BME280;29709;52.396;16.796;2022-07-24T00:18:33;101965.52;;;17.81;70.83
44044;BME280;29709;52.396;16.796;2022-07-24T00:21:38;101973.95;;;17.73;70.52
44044;BME280;29709;52.396;16.796;2022-07-24T00:25:12;101980.08;;;17.60;70.51
44044;BME280;29709;52.396;16.796;2022-07-24T00:28:15;101967.80;;;17.55;71.25
44044;BME280;29709;52.396;16.796;2022-07-24T00:31:19;101977.01;;;17.55;69.98
44044;BME280;29709;52.396;16.796;2022-07-24T00:34:24;101975.82;;;17.50;70.86
44044;BME280;29709;52.396;16.796;2022-07-24T00:37:29;101968.05;;;17.45;70.70
44044;BME280;29709;52.396;16.796;2022-07-24T00:44:09;101974.91;;;17.35;70.66
44044;BME280;29709;52.396;16.796;2022-07-24T00:47:27;101973.23;;;17.25;70.79
44044;BME280;29709;52.396;16.796;2022-07-24T00:50:30;101978.10;;;17.23;70.75
44044;BME280;29709;52.396;16.796;2022-07-24T00:53:33;101974.99;;;17.18;71.27
44044;BME280;29709;52.396;16.796;2022-07-24T00:56:37;101971.05;;;17.13;70.29
44044;BME280;29709;52.396;16.796;2022-07-24T00:59:41;101980.11;;;17.07;71.16
44044;BME280;29709;52.396;16.796;2022-07-24T01:02:44;101986.04;;;17.03;70.94
44044;BME280;29709;52.396;16.796;2022-07-24T01:05:47;101983.63;;;17.00;70.20
44044;BME280;29709;52.396;16.796;2022-07-24T01:08:51;102002.37;;;16.98;70.65
44044;BME280;29709;52.396;16.796;2022-07-24T01:11:55;101992.86;;;16.93;71.07
44044;BME280;29709;52.396;16.796;2022-07-24T01:14:58;102000.17;;;16.86;69.79
44044;BME280;29709;52.396;16.796;2022-07-24T01:18:28;102015.51;;;16.73;70.24
44044;BME280;29709;52.396;16.796;2022-07-24T01:21:31;101999.89;;;16.64;70.22
44044;BME280;29709;52.396;16.796;2022-07-24T01:24:35;102011.01;;;16.56;71.37
44044;BME280;29709;52.396;16.796;2022-07-24T01:27:40;102011.88;;;16.57;71.95
44044;BME280;29709;52.396;16.796;2022-07-24T01:30:45;102009.98;;;16.57;72.27
44044;BME280;29709;52.396;16.796;2022-07-24T01:33:50;102007.37;;;16.56;70.96
44044;BME280;29709;52.396;16.796;2022-07-24T01:36:55;102003.59;;;16.49;71.26
44044;BME280;29709;52.396;16.796;2022-07-24T01:40:00;102000.28;;;16.45;71.56
44044;BME280;29709;52.396;16.796;2022-07-24T01:43:36;101997.38;;;16.38;71.11
44044;BME280;29709;52.396;16.796;2022-07-24T01:46:40;101999.98;;;16.32;71.05
44044;BME280;29709;52.396;16.796;2022-07-24T01:49:43;101996.71;;;16.28;71.96
44044;BME280;29709;52.396;16.796;2022-07-24T01:52:48;102003.30;;;16.27;71.87
44044;BME280;29709;52.396;16.796;2022-07-24T01:55:53;101996.89;;;16.27;71.61
44044;BME280;29709;52.396;16.796;2022-07-24T01:58:58;102000.85;;;16.24;71.51
44044;BME280;29709;52.396;16.796;2022-07-24T02:02:03;101990.13;;;16.21;71.49
44044;BME280;29709;52.396;16.796;2022-07-24T02:05:08;101996.90;;;16.19;71.71
44044;BME280;29709;52.396;16.796;2022-07-24T02:08:41;101998.31;;;16.06;70.10
44044;BME280;29709;52.396;16.796;2022-07-24T02:11:44;102003.35;;;15.95;70.50
44044;BME280;29709;52.396;16.796;2022-07-24T02:14:48;102006.80;;;15.88;71.78
44044;BME280;29709;52.396;16.796;2022-07-24T02:17:58;102009.04;;;15.93;72.46
44044;BME280;29709;52.396;16.796;2022-07-24T02:21:03;102012.52;;;15.87;71.38
44044;BME280;29709;52.396;16.796;2022-07-24T02:24:06;102011.30;;;15.81;72.49
44044;BME280;29709;52.396;16.796;2022-07-24T02:27:09;102016.67;;;15.83;72.64
44044;BME280;29709;52.396;16.796;2022-07-24T02:30:21;102022.58;;;15.88;72.16
44044;BME280;29709;52.396;16.796;2022-07-24T02:33:49;102025.35;;;15.88;71.92
44044;BME280;29709;52.396;16.796;2022-07-24T02:36:52;102029.67;;;15.91;72.63
44044;BME280;29709;52.396;16.796;2022-07-24T02:39:56;102023.95;;;15.92;71.17
44044;BME280;29709;52.396;16.796;2022-07-24T02:43:02;102026.74;;;15.84;71.92
44044;BME280;29709;52.396;16.796;2022-07-24T02:46:06;102025.16;;;15.81;71.57
44044;BME280;29709;52.396;16.796;2022-07-24T02:49:11;102024.66;;;15.78;71.22
44044;BME280;29709;52.396;16.796;2022-07-24T02:52:16;102032.79;;;15.79;71.84
44044;BME280;29709;52.396;16.796;2022-07-24T02:55:22;102034.02;;;15.77;71.71
44044;BME280;29709;52.396;16.796;2022-07-24T02:58:55;102042.15;;;15.78;71.97
44044;BME280;29709;52.396;16.796;2022-07-24T03:01:58;102037.13;;;15.82;71.14
44044;BME280;29709;52.396;16.796;2022-07-24T03:05:04;102043.52;;;15.82;71.95
44044;BME280;29709;52.396;16.796;2022-07-24T03:08:07;102043.02;;;15.79;71.47
44044;BME280;29709;52.396;16.796;2022-07-24T03:11:12;102046.65;;;15.79;71.79
44044;BME280;29709;52.396;16.796;2022-07-24T03:14:17;102056.02;;;15.78;70.73
44044;BME280;29709;52.396;16.796;2022-07-24T03:17:22;102052.38;;;15.78;71.96
44044;BME280;29709;52.396;16.796;2022-07-24T03:20:28;102057.74;;;15.79;71.99
44044;BME280;29709;52.396;16.796;2022-07-24T03:24:01;102050.30;;;15.80;70.91
44044;BME280;29709;52.396;16.796;2022-07-24T03:27:04;102055.15;;;15.78;71.54
44044;BME280;29709;52.396;16.796;2022-07-24T03:30:08;102044.74;;;15.80;71.38
44044;BME280;29709;52.396;16.796;2022-07-24T03:33:13;102045.61;;;15.80;72.01
44044;BME280;29709;52.396;16.796;2022-07-24T03:36:18;102053.75;;;15.82;70.24
44044;BME280;29709;52.396;16.796;2022-07-24T03:39:23;102055.82;;;15.72;72.45
44044;BME280;29709;52.396;16.796;2022-07-24T03:42:28;102063.44;;;15.70;72.14
44044;BME280;29709;52.396;16.796;2022-07-24T03:45:37;102055.12;;;15.70;72.30
44044;BME280;29709;52.396;16.796;2022-07-24T03:49:06;102057.72;;;15.71;72.38
44044;BME280;29709;52.396;16.796;2022-07-24T03:52:10;102057.55;;;15.73;72.54
44044;BME280;29709;52.396;16.796;2022-07-24T03:55:13;102063.95;;;15.73;72.26
44044;BME280;29709;52.396;16.796;2022-07-24T03:58:18;102061.36;;;15.72;72.14
44044;BME280;29709;52.396;16.796;2022-07-24T04:01:23;102063.97;;;15.65;72.25
44044;BME280;29709;52.396;16.796;2022-07-24T04:04:28;102071.91;;;15.60;72.31
44044;BME280;29709;52.396;16.796;2022-07-24T04:07:37;102067.79;;;15.64;73.78
44044;BME280;29709;52.396;16.796;2022-07-24T04:10:41;102074.70;;;15.68;73.70
44044;BME280;29709;52.396;16.796;2022-07-24T04:14:12;102069.36;;;15.75;74.00
44044;BME280;29709;52.396;16.796;2022-07-24T04:17:15;102069.19;;;15.84;72.92
44044;BME280;29709;52.396;16.796;2022-07-24T04:20:19;102072.81;;;15.93;73.31
44044;BME280;29709;52.396;16.796;2022-07-24T04:23:24;102072.64;;;16.03;73.88
44044;BME280;29709;52.396;16.796;2022-07-24T04:26:29;102073.70;;;16.10;74.36
44044;BME280;29709;52.396;16.796;2022-07-24T04:29:34;102076.47;;;16.10;73.85
44044;BME280;29709;52.396;16.796;2022-07-24T04:32:39;102085.48;;;16.20;74.02
44044;BME280;29709;52.396;16.796;2022-07-24T04:35:44;102079.06;;;16.28;71.91
44044;BME280;29709;52.396;16.796;2022-07-24T04:39:18;102082.53;;;16.30;72.10
44044;BME280;29709;52.396;16.796;2022-07-24T04:42:21;102075.93;;;16.39;73.43
44044;BME280;29709;52.396;16.796;2022-07-24T04:45:24;102075.39;;;16.43;73.47
44044;BME280;29709;52.396;16.796;2022-07-24T04:48:29;102076.07;;;16.54;72.91
44044;BME280;29709;52.396;16.796;2022-07-24T04:51:35;102082.66;;;16.61;73.07
44044;BME280;29709;52.396;16.796;2022-07-24T04:54:40;102095.14;;;16.73;72.94
44044;BME280;29709;52.396;16.796;2022-07-24T04:57:45;102095.13;;;16.81;71.83
44044;BME280;29709;52.396;16.796;2022-07-24T05:00:50;102090.25;;;16.91;72.18
44044;BME280;29709;52.396;16.796;2022-07-24T05:04:24;102093.00;;;16.99;71.60
44044;BME280;29709;52.396;16.796;2022-07-24T05:07:27;102095.90;;;17.06;71.66
44044;BME280;29709;52.396;16.796;2022-07-24T05:10:36;102104.39;;;17.13;71.31
44044;BME280;29709;52.396;16.796;2022-07-24T05:13:42;102100.87;;;17.19;70.73
44044;BME280;29709;52.396;16.796;2022-07-24T05:16:46;102106.22;;;17.28;70.86
44044;BME280;29709;52.396;16.796;2022-07-24T05:19:51;102105.82;;;17.40;70.61
44044;BME280;29709;52.396;16.796;2022-07-24T05:22:56;102113.44;;;17.46;70.16
44044;BME280;29709;52.396;16.796;2022-07-24T05:26:31;102106.75;;;17.63;70.01
44044;BME280;29709;52.396;16.796;2022-07-24T05:29:34;102105.18;;;17.92;69.44
44044;BME280;29709;52.396;16.796;2022-07-24T05:32:37;102108.22;;;18.28;68.49
44044;BME280;29709;52.396;16.796;2022-07-24T05:35:42;102112.23;;;18.63;67.60
44044;BME280;29709;52.396;16.796;2022-07-24T05:38:47;102114.30;;;18.84;66.52
44044;BME280;29709;52.396;16.796;2022-07-24T05:41:52;102121.80;;;19.13;65.54
44044;BME280;29709;52.396;16.796;2022-07-24T05:44:57;102124.98;;;19.39;64.74
44044;BME280;29709;52.396;16.796;2022-07-24T05:48:03;102129.08;;;19.58;63.08
44044;BME280;29709;52.396;16.796;2022-07-24T05:51:36;102111.66;;;19.71;61.41
44044;BME280;29709;52.396;16.796;2022-07-24T05:54:39;102112.48;;;20.07;61.99
44044;BME280;29709;52.396;16.796;2022-07-24T05:57:47;102119.05;;;20.21;60.95
44044;BME280;29709;52.396;16.796;2022-07-24T06:00:50;102117.26;;;20.35;60.53
44044;BME280;29709;52.396;16.796;2022-07-24T06:03:53;102115.13;;;20.58;60.47
44044;BME280;29709;52.396;16.796;2022-07-24T06:06:58;102122.59;;;20.79;59.03
44044;BME280;29709;52.396;16.796;2022-07-24T06:13:44;102122.15;;;21.10;57.41
44044;BME280;29709;52.396;16.796;2022-07-24T06:16:47;102118.66;;;21.36;57.93
44044;BME280;29709;52.396;16.796;2022-07-24T06:19:51;102112.32;;;21.21;56.30
44044;BME280;29709;52.396;16.796;2022-07-24T06:22:54;102112.88;;;21.38;56.15
44044;BME280;29709;52.396;16.796;2022-07-24T06:25:57;102121.02;;;21.32;56.16
44044;BME280;29709;52.396;16.796;2022-07-24T06:29:00;102117.62;;;21.37;55.79
44044;BME280;29709;52.396;16.796;2022-07-24T06:32:04;102129.76;;;21.23;55.51
44044;BME280;29709;52.396;16.796;2022-07-24T06:35:08;102126.38;;;21.27;55.93
44044;BME280;29709;52.396;16.796;2022-07-24T06:38:14;102122.36;;;21.43;55.99
44044;BME280;29709;52.396;16.796;2022-07-24T06:41:47;102130.10;;;21.41;54.62
44044;BME280;29709;52.396;16.796;2022-07-24T06:44:51;102135.21;;;21.31;54.11
44044;BME280;29709;52.396;16.796;2022-07-24T06:48:00;102135.91;;;21.40;53.60
44044;BME280;29709;52.396;16.796;2022-07-24T06:51:04;102126.74;;;21.59;53.34
44044;BME280;29709;52.396;16.796;2022-07-24T06:54:07;102126.74;;;21.59;52.52
44044;BME280;29709;52.396;16.796;2022-07-24T06:57:10;102118.99;;;21.61;52.69
44044;BME280;29709;52.396;16.796;2022-07-24T07:00:14;102127.03;;;21.84;52.01
44044;BME280;29709;52.396;16.796;2022-07-24T07:03:19;102125.98;;;21.98;52.10
44044;BME280;29709;52.396;16.796;2022-07-24T07:06:53;102126.30;;;22.23;51.40
44044;BME280;29709;52.396;16.796;2022-07-24T07:09:56;102119.64;;;22.31;50.50
44044;BME280;29709;52.396;16.796;2022-07-24T07:12:59;102136.45;;;22.44;50.73
44044;BME280;29709;52.396;16.796;2022-07-24T07:16:04;102120.94;;;22.55;49.92
44044;BME280;29709;52.396;16.796;2022-07-24T07:19:09;102119.21;;;22.54;50.58
44044;BME280;29709;52.396;16.796;2022-07-24T07:22:14;102124.80;;;22.67;48.73
44044;BME280;29709;52.396;16.796;2022-07-24T07:25:19;102134.50;;;22.58;48.04
44044;BME280;29709;52.396;16.796;2022-07-24T07:28:24;102135.39;;;22.52;48.14
44044;BME280;29709;52.396;16.796;2022-07-24T07:31:58;102125.88;;;22.33;47.91
44044;BME280;29709;52.396;16.796;2022-07-24T07:35:01;102129.48;;;22.07;48.04
44044;BME280;29709;52.396;16.796;2022-07-24T07:38:05;102128.81;;;22.05;48.53
44044;BME280;29709;52.396;16.796;2022-07-24T07:41:10;102139.42;;;22.09;49.51
44044;BME280;29709;52.396;16.796;2022-07-24T07:44:15;102136.41;;;22.11;48.34
44044;BME280;29709;52.396;16.796;2022-07-24T07:47:20;102141.92;;;21.98;48.98
44044;BME280;29709;52.396;16.796;2022-07-24T07:50:25;102142.23;;;22.09;48.92
44044;BME280;29709;52.396;16.796;2022-07-24T07:53:30;102144.54;;;22.06;48.24
44044;BME280;29709;52.396;16.796;2022-07-24T07:57:03;102135.73;;;22.09;48.94
44044;BME280;29709;52.396;16.796;2022-07-24T08:00:13;102135.34;;;22.12;48.48
44044;BME280;29709;52.396;16.796;2022-07-24T08:03:16;102132.33;;;22.27;48.19
44044;BME280;29709;52.396;16.796;2022-07-24T08:06:20;102136.20;;;22.26;48.57
44044;BME280;29709;52.396;16.796;2022-07-24T08:09:23;102133.85;;;22.49;47.92
44044;BME280;29709;52.396;16.796;2022-07-24T08:12:26;102136.00;;;22.47;47.85
44044;BME280;29709;52.396;16.796;2022-07-24T08:15:29;102141.63;;;22.54;47.44
44044;BME280;29709;52.396;16.796;2022-07-24T08:21:48;102136.42;;;22.70;47.73
44044;BME280;29709;52.396;16.796;2022-07-24T08:24:51;102140.53;;;22.61;47.61
44044;BME280;29709;52.396;16.796;2022-07-24T08:27:54;102139.68;;;22.67;48.00
44044;BME280;29709;52.396;16.796;2022-07-24T08:31:22;102141.20;;;22.90;48.26
44044;BME280;29709;52.396;16.796;2022-07-24T08:34:25;102146.37;;;22.99;47.88
44044;BME280;29709;52.396;16.796;2022-07-24T08:37:28;102137.75;;;22.94;47.56
44044;BME280;29709;52.396;16.796;2022-07-24T08:40:36;102141.42;;;22.95;47.43
44044;BME280;29709;52.396;16.796;2022-07-24T08:43:40;102147.67;;;22.97;47.26
44044;BME280;29709;52.396;16.796;2022-07-24T08:46:43;102136.65;;;22.69;47.04
44044;BME280;29709;52.396;16.796;2022-07-24T08:49:46;102149.81;;;22.55;47.51
44044;BME280;29709;52.396;16.796;2022-07-24T08:52:51;102147.21;;;22.60;47.79
44044;BME280;29709;52.396;16.796;2022-07-24T08:55:54;102148.09;;;22.74;47.53
44044;BME280;29709;52.396;16.796;2022-07-24T08:59:22;102147.65;;;22.77;47.70
44044;BME280;29709;52.396;16.796;2022-07-24T09:02:26;102143.78;;;22.91;47.86
44044;BME280;29709;52.396;16.796;2022-07-24T09:05:30;102149.16;;;23.06;47.60
44044;BME280;29709;52.396;16.796;2022-07-24T09:08:43;102151.99;;;22.93;46.88
44044;BME280;29709;52.396;16.796;2022-07-24T09:11:46;102154.58;;;22.94;47.50
44044;BME280;29709;52.396;16.796;2022-07-24T09:14:49;102159.30;;;23.07;47.46
44044;BME280;29709;52.396;16.796;2022-07-24T09:17:57;102156.46;;;23.27;47.54
44044;BME280;29709;52.396;16.796;2022-07-24T09:24:40;102163.73;;;23.41;47.36
44044;BME280;29709;52.396;16.796;2022-07-24T09:31:01;102150.34;;;23.43;46.79
44044;BME280;29709;52.396;16.796;2022-07-24T09:34:08;102160.98;;;23.35;46.28
44044;BME280;29709;52.396;16.796;2022-07-24T09:37:12;102160.92;;;23.48;47.59
44044;BME280;29709;52.396;16.796;2022-07-24T09:40:16;102156.13;;;23.55;46.71
44044;BME280;29709;52.396;16.796;2022-07-24T09:43:27;102171.25;;;23.67;47.10
44044;BME280;29709;52.396;16.796;2022-07-24T09:46:31;102156.20;;;24.00;46.47
44044;BME280;29709;52.396;16.796;2022-07-24T09:50:10;102163.30;;;24.02;45.26
44044;BME280;29709;52.396;16.796;2022-07-24T09:53:17;102154.52;;;24.24;45.18
44044;BME280;29709;52.396;16.796;2022-07-24T09:56:22;102153.69;;;24.16;45.38
44044;BME280;29709;52.396;16.796;2022-07-24T09:59:25;102160.34;;;24.29;44.94
44044;BME280;29709;52.396;16.796;2022-07-24T10:02:33;102147.94;;;24.43;45.43
44044;BME280;29709;52.396;16.796;2022-07-24T10:05:38;102148.59;;;24.70;44.24
44044;BME280;29709;52.396;16.796;2022-07-24T10:08:47;102142.70;;;24.96;45.21
44044;BME280;29709;52.396;16.796;2022-07-24T10:11:56;102138.80;;;25.22;44.19
44044;BME280;29709;52.396;16.796;2022-07-24T10:15:01;102149.82;;;25.24;44.22
44044;BME280;29709;52.396;16.796;2022-07-24T10:21:53;102144.32;;;25.11;44.24
44044;BME280;29709;52.396;16.796;2022-07-24T10:25:04;102142.80;;;25.33;43.92
44044;BME280;29709;52.396;16.796;2022-07-24T10:28:14;102146.67;;;25.32;42.91
44044;BME280;29709;52.396;16.796;2022-07-24T10:31:18;102141.28;;;25.49;43.61
44044;BME280;29709;52.396;16.796;2022-07-24T10:41:05;102138.18;;;24.45;43.97
44044;BME280;29709;52.396;16.796;2022-07-24T10:44:18;102124.32;;;24.51;44.66
44044;BME280;29709;52.396;16.796;2022-07-24T10:47:26;102127.35;;;24.74;44.09
44044;BME280;29709;52.396;16.796;2022-07-24T10:54:17;102132.07;;;24.98;43.67
44044;BME280;29709;52.396;16.796;2022-07-24T11:00:53;102136.34;;;25.62;42.96
44044;BME280;29709;52.396;16.796;2022-07-24T11:07:36;102128.79;;;25.45;42.57
44044;BME280;29709;52.396;16.796;2022-07-24T11:10:51;102130.26;;;25.66;43.16
44044;BME280;29709;52.396;16.796;2022-07-24T11:14:06;102123.85;;;25.40;41.86
44044;BME280;29709;52.396;16.796;2022-07-24T11:20:44;102127.38;;;25.36;42.57
44044;BME280;29709;52.396;16.796;2022-07-24T11:27:23;102135.34;;;25.02;42.10
44044;BME280;29709;52.396;16.796;2022-07-24T11:30:44;102123.14;;;25.08;43.26
44044;BME280;29709;52.396;16.796;2022-07-24T11:34:00;102121.80;;;25.11;42.66
44044;BME280;29709;52.396;16.796;2022-07-24T11:37:14;102124.02;;;25.27;43.33
44044;BME280;29709;52.396;16.796;2022-07-24T11:40:28;102119.02;;;25.47;42.82
44044;BME280;29709;52.396;16.796;2022-07-24T11:43:51;102127.78;;;25.76;42.11
44044;BME280;29709;52.396;16.796;2022-07-24T11:47:07;102119.27;;;25.94;42.59
44044;BME280;29709;52.396;16.796;2022-07-24T11:50:27;102118.11;;;26.13;42.44
44044;BME280;29709;52.396;16.796;2022-07-24T11:53:56;102128.79;;;26.53;41.48
44044;BME280;29709;52.396;16.796;2022-07-24T11:56:59;102115.35;;;26.79;40.91
44044;BME280;29709;52.396;16.796;2022-07-24T12:00:08;102108.35;;;26.81;40.65
44044;BME280;29709;52.396;16.796;2022-07-24T12:03:14;102111.54;;;26.85;40.31
44044;BME280;29709;52.396;16.796;2022-07-24T12:06:18;102103.84;;;27.03;39.77
44044;BME280;29709;52.396;16.796;2022-07-24T12:09:21;102116.08;;;27.09;39.84
44044;BME280;29709;52.396;16.796;2022-07-24T12:12:35;102099.64;;;27.18;39.62
44044;BME280;29709;52.396;16.796;2022-07-24T12:15:39;102091.78;;;27.31;39.85
44044;BME280;29709;52.396;16.796;2022-07-24T12:19:15;102097.23;;;27.50;39.11
44044;BME280;29709;52.396;16.796;2022-07-24T12:22:20;102090.31;;;27.17;38.26
44044;BME280;29709;52.396;16.796;2022-07-24T12:25:24;102085.67;;;27.11;39.14
44044;BME280;29709;52.396;16.796;2022-07-24T12:28:27;102077.28;;;27.28;39.79
44044;BME280;29709;52.396;16.796;2022-07-24T12:31:30;102079.38;;;27.32;38.48
44044;BME280;29709;52.396;16.796;2022-07-24T12:34:43;102077.91;;;27.18;38.57
44044;BME280;29709;52.396;16.796;2022-07-24T12:37:46;102080.23;;;26.98;38.57
44044;BME280;29709;52.396;16.796;2022-07-24T12:41:17;102084.08;;;26.68;39.11
44044;BME280;29709;52.396;16.796;2022-07-24T12:44:38;102073.15;;;26.60;39.12
44044;BME280;29709;52.396;16.796;2022-07-24T12:54:03;102071.69;;;26.69;39.86
44044;BME280;29709;52.396;16.796;2022-07-24T12:57:35;102082.95;;;27.16;38.79
44044;BME280;29709;52.396;16.796;2022-07-24T13:04:01;102071.27;;;27.76;37.67
44044;BME280;29709;52.396;16.796;2022-07-24T13:07:07;102047.17;;;28.02;36.44
44044;BME280;29709;52.396;16.796;2022-07-24T13:10:11;102051.40;;;28.16;36.50
44044;BME280;29709;52.396;16.796;2022-07-24T13:13:14;102047.62;;;28.11;35.10
44044;BME280;29709;52.396;16.796;2022-07-24T13:16:45;102051.75;;;27.75;36.17
44044;BME280;29709;52.396;16.796;2022-07-24T13:19:49;102050.57;;;27.87;36.68
44044;BME280;29709;52.396;16.796;2022-07-24T13:22:54;102044.60;;;28.01;36.45
44044;BME280;29709;52.396;16.796;2022-07-24T13:25:57;102050.35;;;28.23;36.04
44044;BME280;29709;52.396;16.796;2022-07-24T13:29:02;102054.02;;;28.35;36.24
44044;BME280;29709;52.396;16.796;2022-07-24T13:32:05;102052.91;;;28.36;34.28
44044;BME280;29709;52.396;16.796;2022-07-24T13:35:09;102038.71;;;28.19;34.04
44044;BME280;29709;52.396;16.796;2022-07-24T13:38:12;102031.43;;;28.06;33.75
44044;BME280;29709;52.396;16.796;2022-07-24T13:41:16;102031.25;;;28.13;34.05
44044;BME280;29709;52.396;16.796;2022-07-24T13:44:46;102030.39;;;28.12;33.95
44044;BME280;29709;52.396;16.796;2022-07-24T13:47:49;102020.46;;;28.10;33.12
44044;BME280;29709;52.396;16.796;2022-07-24T13:50:52;102015.66;;;28.10;33.72
44044;BME280;29709;52.396;16.796;2022-07-24T13:53:55;102010.20;;;28.04;33.20
44044;BME280;29709;52.396;16.796;2022-07-24T13:56:58;102009.75;;;28.12;32.78
44044;BME280;29709;52.396;16.796;2022-07-24T14:00:06;102003.52;;;28.27;32.77
44044;BME280;29709;52.396;16.796;2022-07-24T14:03:10;102009.59;;;28.18;32.20
44044;BME280;29709;52.396;16.796;2022-07-24T14:06:13;102005.99;;;28.06;31.83
44044;BME280;29709;52.396;16.796;2022-07-24T14:09:16;102000.33;;;28.23;32.66
44044;BME280;29709;52.396;16.796;2022-07-24T14:12:19;101994.68;;;28.23;32.09
44044;BME280;29709;52.396;16.796;2022-07-24T14:15:49;101998.98;;;28.26;31.69
44044;BME280;29709;52.396;16.796;2022-07-24T14:18:53;101998.98;;;28.42;32.36
44044;BME280;29709;52.396;16.796;2022-07-24T14:21:57;101987.91;;;28.24;31.63
44044;BME280;29709;52.396;16.796;2022-07-24T14:25:00;101986.97;;;28.02;31.30
44044;BME280;29709;52.396;16.796;2022-07-24T14:28:03;101983.82;;;28.15;31.85
44044;BME280;29709;52.396;16.796;2022-07-24T14:31:07;101985.08;;;28.24;31.74
44044;BME280;29709;52.396;16.796;2022-07-24T14:34:10;101987.02;;;28.35;31.82
44044;BME280;29709;52.396;16.796;2022-07-24T14:37:17;101990.60;;;28.31;32.11
44044;BME280;29709;52.396;16.796;2022-07-24T14:40:20;101984.25;;;28.40;31.68
44044;BME280;29709;52.396;16.796;2022-07-24T14:43:51;101979.55;;;28.46;31.69
44044;BME280;29709;52.396;16.796;2022-07-24T14:46:55;101974.37;;;28.60;30.37
44044;BME280;29709;52.396;16.796;2022-07-24T14:49:58;101976.94;;;28.61;31.00
44044;BME280;29709;52.396;16.796;2022-07-24T14:53:01;101970.59;;;28.54;30.95
44044;BME280;29709;52.396;16.796;2022-07-24T14:56:04;101972.22;;;28.67;31.18
44044;BME280;29709;52.396;16.796;2022-07-24T14:59:08;101974.26;;;28.71;29.44
44044;BME280;29709;52.396;16.796;2022-07-24T15:02:11;101976.40;;;28.64;29.88
44044;BME280;29709;52.396;16.796;2022-07-24T15:05:15;101979.87;;;28.50;29.28
44044;BME280;29709;52.396;16.796;2022-07-24T15:08:18;101973.43;;;28.21;28.62
44044;BME280;29709;52.396;16.796;2022-07-24T15:11:21;101973.90;;;28.29;29.98
44044;BME280;29709;52.396;16.796;2022-07-24T15:14:52;101973.19;;;28.56;30.49
44044;BME280;29709;52.396;16.796;2022-07-24T15:17:56;101972.39;;;28.60;30.14
44044;BME280;29709;52.396;16.796;2022-07-24T15:20:59;101968.45;;;28.61;29.90
44044;BME280;29709;52.396;16.796;2022-07-24T15:24:04;101967.59;;;28.61;27.96
44044;BME280;29709;52.396;16.796;2022-07-24T15:30:19;101964.85;;;28.66;28.33
44044;BME280;29709;52.396;16.796;2022-07-24T15:33:23;101956.80;;;28.58;28.20
44044;BME280;29709;52.396;16.796;2022-07-24T15:36:26;101961.20;;;28.49;28.51
44044;BME280;29709;52.396;16.796;2022-07-24T15:39:56;101948.71;;;28.28;28.25
44044;BME280;29709;52.396;16.796;2022-07-24T15:43:01;101948.85;;;28.21;28.87
44044;BME280;29709;52.396;16.796;2022-07-24T15:46:04;101938.83;;;28.13;28.72
44044;BME280;29709;52.396;16.796;2022-07-24T15:49:07;101936.27;;;28.12;28.73
44044;BME280;29709;52.396;16.796;2022-07-24T15:52:11;101940.21;;;28.11;28.89
44044;BME280;29709;52.396;16.796;2022-07-24T15:55:15;101937.32;;;28.06;28.34
44044;BME280;29709;52.396;16.796;2022-07-24T15:58:18;101931.98;;;27.93;28.60
44044;BME280;29709;52.396;16.796;2022-07-24T16:01:21;101931.32;;;27.85;28.76
44044;BME280;29709;52.396;16.796;2022-07-24T16:04:24;101921.73;;;27.86;28.36
44044;BME280;29709;52.396;16.796;2022-07-24T16:07:27;101926.67;;;27.79;28.61
44044;BME280;29709;52.396;16.796;2022-07-24T16:10:58;101915.90;;;27.76;28.47
44044;BME280;29709;52.396;16.796;2022-07-24T16:14:01;101918.99;;;27.75;29.12
44044;BME280;29709;52.396;16.796;2022-07-24T16:17:05;101916.50;;;27.78;29.00
44044;BME280;29709;52.396;16.796;2022-07-24T16:20:09;101910.09;;;27.83;28.56
44044;BME280;29709;52.396;16.796;2022-07-24T16:23:13;101919.59;;;27.94;29.06
44044;BME280;29709;52.396;16.796;2022-07-24T16:26:16;101892.09;;;27.89;29.53
44044;BME280;29709;52.396;16.796;2022-07-24T16:29:19;101907.51;;;27.98;29.22
44044;BME280;29709;52.396;16.796;2022-07-24T16:32:22;101915.20;;;28.03;30.08
44044;BME280;29709;52.396;16.796;2022-07-24T16:35:25;101904.26;;;28.06;29.92
44044;BME280;29709;52.396;16.796;2022-07-24T16:38:28;101909.97;;;28.11;29.95
44044;BME280;29709;52.396;16.796;2022-07-24T16:41:57;101911.02;;;28.05;30.46
44044;BME280;29709;52.396;16.796;2022-07-24T16:45:00;101908.95;;;28.01;30.41
44044;BME280;29709;52.396;16.796;2022-07-24T16:48:03;101905.38;;;27.88;30.04
44044;BME280;29709;52.396;16.796;2022-07-24T16:51:06;101914.96;;;27.87;29.96
44044;BME280;29709;52.396;16.796;2022-07-24T16:54:09;101908.45;;;27.87;29.28
44044;BME280;29709;52.396;16.796;2022-07-24T16:57:12;101910.70;;;27.85;30.50
44044;BME280;29709;52.396;16.796;2022-07-24T17:00:16;101916.76;;;27.77;30.46
44044;BME280;29709;52.396;16.796;2022-07-24T17:03:19;101905.35;;;27.72;30.83
44044;BME280;29709;52.396;16.796;2022-07-24T17:06:22;101913.49;;;27.68;30.41